createdAt,value
2022-10-05T00:02:27.331Z,48.65
2022-10-05T00:05:00.432Z,48.63
2022-10-05T00:07:33.365Z,48.68
2022-10-05T00:10:06.386Z,48.73
2022-10-05T00:12:39.456Z,48.71
2022-10-05T00:15:12.344Z,48.72
2022-10-05T00:17:45.304Z,48.75
2022-10-05T00:20:18.551Z,48.84
2022-10-05T00:22:52.354Z,48.82
2022-10-05T00:25:25.326Z,48.89
2022-10-05T00:27:58.442Z,48.84
2022-10-05T00:30:31.397Z,48.99
2022-10-05T00:33:04.460Z,49.06
2022-10-05T00:35:38.435Z,49.10
2022-10-05T00:38:14.545Z,49.02
2022-10-05T00:40:48.408Z,49.15
2022-10-05T00:43:21.375Z,49.16
2022-10-05T00:45:54.488Z,49.14
2022-10-05T00:48:27.436Z,49.17
2022-10-05T00:51:00.382Z,49.18
2022-10-05T00:53:33.444Z,49.15
2022-10-05T00:56:06.389Z,49.13
2022-10-05T00:58:39.444Z,49.15
2022-10-05T01:01:12.569Z,49.12
2022-10-05T01:04:01.910Z,49.12
2022-10-05T01:06:35.218Z,49.16
2022-10-05T01:09:08.541Z,49.22
2022-10-05T01:11:42.415Z,49.17
2022-10-05T01:14:15.454Z,49.19
2022-10-05T01:16:49.080Z,49.20
2022-10-05T01:19:21.510Z,49.17
2022-10-05T01:21:54.452Z,49.21
2022-10-05T01:24:27.430Z,49.23
2022-10-05T01:27:00.496Z,49.23
2022-10-05T01:29:33.437Z,49.20
2022-10-05T01:32:06.454Z,49.27
2022-10-05T01:34:39.395Z,49.24
2022-10-05T01:37:12.445Z,49.29
2022-10-05T01:39:45.430Z,49.22
2022-10-05T01:42:18.476Z,49.20
2022-10-05T01:44:51.455Z,49.17
2022-10-05T01:50:14.449Z,49.17
2022-10-05T01:52:47.552Z,49.18
2022-10-05T01:55:20.534Z,49.09
2022-10-05T01:57:53.489Z,49.17
2022-10-05T02:00:26.571Z,49.17
2022-10-05T02:02:59.505Z,49.19
2022-10-05T02:05:32.584Z,49.21
2022-10-05T02:08:05.470Z,49.34
2022-10-05T02:10:38.595Z,49.33
2022-10-05T02:13:11.533Z,49.32
2022-10-05T02:15:44.566Z,49.33
2022-10-05T02:18:17.512Z,49.35
2022-10-05T02:20:50.585Z,49.44
2022-10-05T02:23:23.493Z,49.39
2022-10-05T02:25:56.507Z,49.39
2022-10-05T02:28:29.648Z,49.44
2022-10-05T02:31:02.689Z,49.39
2022-10-05T02:33:35.612Z,49.39
2022-10-05T02:36:08.590Z,49.38
2022-10-05T02:38:41.519Z,49.41
2022-10-05T02:41:14.497Z,49.51
2022-10-05T02:43:47.537Z,49.51
2022-10-05T02:46:20.728Z,49.51
2022-10-05T02:48:53.549Z,49.48
2022-10-05T02:51:26.623Z,49.50
2022-10-05T02:53:59.539Z,49.52
2022-10-05T02:56:32.641Z,49.55
2022-10-05T02:59:05.602Z,49.53
2022-10-05T03:01:38.756Z,49.53
2022-10-05T03:04:11.438Z,49.54
2022-10-05T03:06:44.860Z,49.51
2022-10-05T03:09:17.651Z,49.56
2022-10-05T03:11:50.569Z,49.50
2022-10-05T03:14:23.674Z,49.49
2022-10-05T03:16:56.563Z,49.41
2022-10-05T03:19:29.636Z,49.44
2022-10-05T03:22:02.613Z,49.50
2022-10-05T03:24:49.568Z,49.47
2022-10-05T03:27:22.584Z,49.37
2022-10-05T03:29:55.648Z,49.47
2022-10-05T03:32:28.695Z,49.47
2022-10-05T03:35:01.616Z,49.55
2022-10-05T03:37:34.670Z,49.48
2022-10-05T03:40:10.562Z,49.49
2022-10-05T03:42:43.700Z,49.49
2022-10-05T03:45:16.680Z,49.50
2022-10-05T03:47:49.737Z,49.50
2022-10-05T03:50:22.667Z,49.39
2022-10-05T03:52:55.412Z,49.46
2022-10-05T03:55:28.498Z,49.42
2022-10-05T03:58:15.237Z,49.37
2022-10-05T04:00:48.505Z,49.39
2022-10-05T04:03:27.432Z,49.43
2022-10-05T04:06:00.481Z,49.35
2022-10-05T04:08:33.472Z,49.37
2022-10-05T04:11:06.725Z,49.32
2022-10-05T04:13:39.681Z,49.32
2022-10-05T04:16:12.774Z,49.31
2022-10-05T04:18:45.441Z,49.32
2022-10-05T04:21:22.803Z,49.36
2022-10-05T04:23:52.631Z,49.35
2022-10-05T04:26:25.768Z,49.36
2022-10-05T04:28:58.721Z,49.26
2022-10-05T04:31:31.613Z,49.23
2022-10-05T04:34:04.787Z,49.33
2022-10-05T04:36:37.701Z,49.28
2022-10-05T04:39:10.688Z,49.25
2022-10-05T04:41:43.710Z,49.27
2022-10-05T04:44:16.693Z,49.33
2022-10-05T04:46:50.101Z,49.30
2022-10-05T04:49:22.797Z,49.24
2022-10-05T04:51:55.808Z,49.30
2022-10-05T04:54:28.580Z,49.34
2022-10-05T04:57:01.505Z,49.27
2022-10-05T04:59:48.777Z,49.29
2022-10-05T05:02:21.822Z,49.26
2022-10-05T05:04:54.818Z,49.28
2022-10-05T05:07:27.735Z,49.27
2022-10-05T05:10:00.822Z,49.27
2022-10-05T05:12:33.746Z,49.26
2022-10-05T05:15:06.823Z,49.27
2022-10-05T05:17:39.842Z,49.21
2022-10-05T05:20:12.763Z,49.28
2022-10-05T05:22:45.879Z,49.18
2022-10-05T05:25:18.787Z,49.32
2022-10-05T05:27:51.752Z,49.31
2022-10-05T05:30:25.013Z,48.54
2022-10-05T05:33:12.882Z,48.25
2022-10-05T05:35:45.845Z,48.16
2022-10-05T05:38:18.876Z,47.94
2022-10-05T05:40:51.834Z,47.84
2022-10-05T05:43:24.750Z,48.23
2022-10-05T05:45:57.890Z,48.33
2022-10-05T05:48:30.943Z,48.40
2022-10-05T05:51:04.882Z,48.45
2022-10-05T05:53:37.839Z,48.58
2022-10-05T05:56:11.009Z,48.62
2022-10-05T05:58:44.850Z,48.69
2022-10-05T06:01:32.246Z,48.70
2022-10-05T06:03:50.676Z,48.75
2022-10-05T06:06:23.946Z,48.81
2022-10-05T06:08:56.805Z,48.80
2022-10-05T06:11:29.877Z,48.80
2022-10-05T06:14:02.811Z,48.83
2022-10-05T06:16:35.891Z,48.82
2022-10-05T06:19:08.893Z,48.85
2022-10-05T06:21:41.983Z,48.88
2022-10-05T06:24:14.893Z,48.88
2022-10-05T06:26:48.486Z,48.87
2022-10-05T06:29:20.813Z,48.84
2022-10-05T06:31:58.572Z,48.86
2022-10-05T06:34:26.839Z,48.84
2022-10-05T06:36:59.954Z,48.80
2022-10-05T06:39:32.961Z,48.80
2022-10-05T06:42:05.841Z,48.83
2022-10-05T06:44:38.983Z,48.80
2022-10-05T06:47:11.969Z,48.83
2022-10-05T06:49:44.987Z,48.78
2022-10-05T06:52:18.030Z,48.79
2022-10-05T06:54:50.874Z,48.80
2022-10-05T06:57:23.968Z,48.79
2022-10-05T06:59:56.869Z,48.78
2022-10-05T07:02:30.043Z,48.81
2022-10-05T07:05:02.928Z,48.71
2022-10-05T07:07:36.078Z,48.74
2022-10-05T07:10:09.937Z,48.71
2022-10-05T07:12:43.034Z,48.71
2022-10-05T07:15:16.027Z,48.64
2022-10-05T07:17:49.011Z,48.69
2022-10-05T07:20:21.999Z,48.73
2022-10-05T07:22:54.951Z,48.70
2022-10-05T07:25:28.012Z,48.69
2022-10-05T07:28:01.065Z,48.74
2022-10-05T07:30:33.839Z,48.67
2022-10-05T07:33:06.936Z,48.66
2022-10-05T07:35:39.912Z,48.70
2022-10-05T07:38:13.098Z,48.66
2022-10-05T07:40:48.925Z,48.71
2022-10-05T07:43:22.059Z,48.74
2022-10-05T07:45:54.972Z,48.68
2022-10-05T07:48:27.964Z,48.63
2022-10-05T07:51:01.115Z,48.62
2022-10-05T07:53:35.061Z,48.62
2022-10-05T07:56:08.062Z,48.63
2022-10-05T07:58:41.072Z,48.66
2022-10-05T08:01:14.016Z,48.63
2022-10-05T08:03:46.989Z,48.61
2022-10-05T08:06:20.060Z,48.62
2022-10-05T08:08:53.017Z,48.65
2022-10-05T08:11:26.098Z,48.63
2022-10-05T08:14:04.708Z,48.64
2022-10-05T08:16:38.116Z,48.58
2022-10-05T08:19:11.003Z,48.34
2022-10-05T08:21:44.127Z,48.05
2022-10-05T08:24:17.079Z,48.02
2022-10-05T08:26:50.096Z,47.70
2022-10-05T08:29:23.008Z,47.50
2022-10-05T08:31:55.831Z,47.67
2022-10-05T08:34:28.999Z,47.71
2022-10-05T08:37:16.031Z,47.75
2022-10-05T08:39:49.143Z,47.81
2022-10-05T08:42:22.135Z,47.85
2022-10-05T08:44:55.032Z,47.74
2022-10-05T08:47:28.142Z,47.78
2022-10-05T08:50:01.113Z,47.83
2022-10-05T08:52:34.135Z,47.96
2022-10-05T08:55:07.221Z,47.82
2022-10-05T08:57:40.134Z,48.02
2022-10-05T09:00:13.057Z,47.99
2022-10-05T09:02:46.142Z,48.07
2022-10-05T09:05:19.048Z,48.19
2022-10-05T09:07:52.161Z,48.15
2022-10-05T09:10:25.066Z,48.19
2022-10-05T09:12:58.202Z,48.19
2022-10-05T09:15:34.204Z,48.31
2022-10-05T09:18:07.103Z,48.37
2022-10-05T09:20:45.896Z,48.35
2022-10-05T09:23:19.082Z,48.39
2022-10-05T09:25:52.006Z,48.42
2022-10-05T09:28:24.957Z,48.46
2022-10-05T09:30:57.969Z,48.41
2022-10-05T09:33:31.209Z,48.37
2022-10-05T09:36:04.052Z,48.35
2022-10-05T09:38:37.224Z,48.31
2022-10-05T09:41:10.147Z,48.32
2022-10-05T09:43:43.243Z,48.27
2022-10-05T09:46:16.299Z,48.24
2022-10-05T09:48:49.181Z,48.20
2022-10-05T09:51:22.220Z,47.76
2022-10-05T09:53:55.114Z,47.48
2022-10-05T09:59:01.158Z,47.75
2022-10-05T10:01:34.677Z,47.85
2022-10-05T10:04:07.212Z,47.89
2022-10-05T10:06:40.202Z,47.97
2022-10-05T10:09:13.274Z,47.98
2022-10-05T10:11:46.591Z,48.05
2022-10-05T10:14:19.143Z,48.04
2022-10-05T10:16:52.259Z,48.02
2022-10-05T10:19:25.209Z,48.09
2022-10-05T10:21:58.281Z,48.08
2022-10-05T10:24:31.241Z,48.12
2022-10-05T10:27:04.322Z,48.14
2022-10-05T10:29:37.275Z,48.11
2022-10-05T10:32:10.233Z,48.16
2022-10-05T10:34:43.258Z,48.17
2022-10-05T10:37:16.317Z,48.14
2022-10-05T10:39:49.192Z,48.19
2022-10-05T10:42:26.081Z,48.17
2022-10-05T10:44:55.102Z,48.19
2022-10-05T10:47:28.305Z,48.18
2022-10-05T10:50:01.296Z,48.19
2022-10-05T10:52:34.326Z,48.21
2022-10-05T10:55:07.197Z,48.24
2022-10-05T10:57:40.340Z,48.23
2022-10-05T11:00:13.278Z,48.31
2022-10-05T11:02:46.263Z,48.25
2022-10-05T11:05:19.316Z,48.24
2022-10-05T11:07:52.292Z,48.24
2022-10-05T11:10:25.304Z,48.24
2022-10-05T11:12:58.321Z,48.26
2022-10-05T11:15:31.314Z,48.25
2022-10-05T11:18:04.384Z,48.24
2022-10-05T11:20:51.270Z,48.27
2022-10-05T11:23:24.393Z,48.28
2022-10-05T11:25:57.307Z,48.29
2022-10-05T11:28:30.508Z,48.25
2022-10-05T11:31:03.232Z,48.27
2022-10-05T11:33:36.398Z,48.25
2022-10-05T11:36:09.283Z,48.33
2022-10-05T11:38:42.395Z,48.31
2022-10-05T11:41:15.354Z,48.33
2022-10-05T11:43:48.044Z,48.31
2022-10-05T11:46:21.419Z,48.27
2022-10-05T11:48:54.393Z,48.31
2022-10-05T11:51:28.926Z,48.26
2022-10-05T11:54:00.285Z,48.32
2022-10-05T11:56:33.426Z,48.37
2022-10-05T11:59:06.166Z,48.38
2022-10-05T12:01:39.339Z,48.37
2022-10-05T12:04:12.440Z,48.34
2022-10-05T12:06:45.467Z,48.38
2022-10-05T12:09:18.045Z,48.39
2022-10-05T12:11:55.543Z,48.38
2022-10-05T12:14:24.224Z,48.41
2022-10-05T12:16:57.146Z,48.41
2022-10-05T12:19:30.154Z,48.42
2022-10-05T12:22:03.196Z,48.43
2022-10-05T12:24:50.099Z,48.45
2022-10-05T12:27:23.161Z,48.43
2022-10-05T12:29:56.133Z,48.44
2022-10-05T12:32:29.228Z,48.43
2022-10-05T12:35:02.305Z,48.46
2022-10-05T12:37:35.494Z,48.45
2022-10-05T12:40:08.409Z,48.46
2022-10-05T12:42:42.068Z,48.44
2022-10-05T12:45:14.150Z,48.42
2022-10-05T12:47:51.505Z,48.41
2022-10-05T12:50:20.489Z,48.40
2022-10-05T12:52:53.097Z,48.43
2022-10-05T12:55:26.331Z,48.40
2022-10-05T12:58:05.049Z,48.38
2022-10-05T13:00:38.183Z,48.36
2022-10-05T13:03:11.335Z,48.36
2022-10-05T13:05:44.255Z,48.31
2022-10-05T13:08:17.137Z,48.28
2022-10-05T13:10:50.232Z,48.30
2022-10-05T13:13:23.218Z,48.33
2022-10-05T13:15:56.488Z,48.40
2022-10-05T13:18:29.568Z,48.41
2022-10-05T13:21:02.549Z,48.42
2022-10-05T13:23:35.467Z,48.47
2022-10-05T13:26:08.879Z,48.49
2022-10-05T13:28:44.397Z,48.51
2022-10-05T13:31:17.538Z,48.52
2022-10-05T13:33:50.598Z,48.51
2022-10-05T13:36:23.585Z,48.49
2022-10-05T13:38:56.424Z,48.53
2022-10-05T13:41:29.562Z,48.51
2022-10-05T13:44:02.476Z,48.54
2022-10-05T13:46:35.368Z,48.54
2022-10-05T13:49:08.590Z,48.52
2022-10-05T13:51:41.526Z,48.53
2022-10-05T13:54:14.466Z,48.62
2022-10-05T13:56:47.498Z,48.61
2022-10-05T13:59:20.460Z,48.66
2022-10-05T14:01:53.666Z,48.65
2022-10-05T14:04:26.512Z,48.65
2022-10-05T14:06:59.390Z,48.48
2022-10-05T14:09:32.519Z,48.40
2022-10-05T14:12:05.590Z,48.25
2022-10-05T14:14:38.610Z,48.13
2022-10-05T14:17:11.280Z,47.97
2022-10-05T14:19:44.519Z,47.95
2022-10-05T14:22:17.618Z,47.86
2022-10-05T14:24:53.345Z,47.64
2022-10-05T14:27:26.299Z,47.82
2022-10-05T14:29:59.653Z,47.95
2022-10-05T14:32:32.609Z,48.00
2022-10-05T14:35:05.540Z,48.05
2022-10-05T14:37:38.547Z,48.10
2022-10-05T14:40:11.254Z,48.16
2022-10-05T14:42:47.304Z,48.17
2022-10-05T14:45:17.565Z,48.21
2022-10-05T14:47:50.333Z,48.23
2022-10-05T14:50:23.573Z,48.27
2022-10-05T14:52:56.337Z,48.32
2022-10-05T14:55:29.638Z,48.30
2022-10-05T14:58:02.569Z,48.30
2022-10-05T15:00:35.302Z,48.28
2022-10-05T15:03:08.460Z,48.32
2022-10-05T15:05:41.335Z,48.35
2022-10-05T15:08:14.293Z,48.32
2022-10-05T15:10:47.640Z,48.36
2022-10-05T15:13:20.602Z,48.36
2022-10-05T15:15:53.690Z,48.42
2022-10-05T15:18:31.699Z,48.45
2022-10-05T15:20:59.622Z,48.49
2022-10-05T15:23:32.418Z,48.49
2022-10-05T15:26:05.607Z,48.49
2022-10-05T15:28:38.465Z,48.55
2022-10-05T15:31:11.429Z,48.52
2022-10-05T15:33:44.618Z,48.52
2022-10-05T15:36:17.760Z,48.57
2022-10-05T15:38:50.334Z,48.59
2022-10-05T15:41:23.639Z,48.62
2022-10-05T15:43:56.672Z,48.63
2022-10-05T15:46:29.727Z,48.59
2022-10-05T15:49:02.686Z,48.61
2022-10-05T15:51:35.354Z,48.61
2022-10-05T15:54:08.432Z,48.63
2022-10-05T15:56:41.496Z,48.63
2022-10-05T15:59:17.744Z,48.64
2022-10-05T16:01:47.446Z,48.63
2022-10-05T16:04:20.695Z,48.65
2022-10-05T16:06:53.784Z,48.64
2022-10-05T16:09:26.686Z,48.64
2022-10-05T16:11:59.391Z,48.64
2022-10-05T16:14:32.410Z,48.65
2022-10-05T16:17:05.754Z,48.67
2022-10-05T16:19:38.677Z,48.66
2022-10-05T16:22:11.623Z,48.66
2022-10-05T16:24:44.717Z,48.68
2022-10-05T16:27:17.719Z,48.69
2022-10-05T16:29:50.650Z,48.68
2022-10-05T16:32:23.596Z,48.70
2022-10-05T16:34:56.430Z,48.72
2022-10-05T16:37:29.723Z,48.17
2022-10-05T16:40:02.432Z,48.55
2022-10-05T16:42:35.930Z,48.58
2022-10-05T16:45:09.662Z,48.61
2022-10-05T16:47:42.743Z,48.64
2022-10-05T16:50:15.813Z,48.66
2022-10-05T16:52:48.803Z,48.70
2022-10-05T16:55:21.721Z,48.75
2022-10-05T16:57:54.446Z,48.69
2022-10-05T17:00:27.776Z,48.79
2022-10-05T17:03:00.809Z,48.82
2022-10-05T17:05:33.878Z,48.79
2022-10-05T17:08:06.482Z,48.80
2022-10-05T17:10:39.470Z,48.04
2022-10-05T17:13:12.480Z,47.70
2022-10-05T17:15:45.911Z,47.39
2022-10-05T17:18:18.499Z,47.40
2022-10-05T17:20:51.835Z,47.44
2022-10-05T17:23:24.783Z,47.46
2022-10-05T17:25:57.484Z,47.34
2022-10-05T17:28:30.768Z,47.47
2022-10-05T17:31:03.683Z,47.52
2022-10-05T17:33:36.569Z,47.43
2022-10-05T17:36:09.683Z,47.66
2022-10-05T17:38:42.573Z,47.82
2022-10-05T17:41:15.659Z,47.84
2022-10-05T17:43:48.941Z,47.91
2022-10-05T17:46:21.874Z,47.96
2022-10-05T17:48:54.590Z,48.04
2022-10-05T17:51:27.714Z,48.07
2022-10-05T17:54:00.828Z,48.10
2022-10-05T17:56:33.926Z,48.16
2022-10-05T17:59:06.532Z,48.21
2022-10-05T18:01:39.808Z,48.25
2022-10-05T18:04:12.871Z,48.24
2022-10-05T18:06:45.867Z,48.33
2022-10-05T18:09:18.815Z,48.35
2022-10-05T18:11:51.722Z,48.35
2022-10-05T18:14:24.969Z,48.38
2022-10-05T18:16:57.722Z,48.42
2022-10-05T18:19:30.668Z,48.44
2022-10-05T18:22:03.743Z,48.47
2022-10-05T18:24:36.743Z,48.47
2022-10-05T18:27:09.585Z,48.52
2022-10-05T18:29:42.625Z,48.54
2022-10-05T18:32:15.697Z,48.54
2022-10-05T18:34:48.775Z,48.55
2022-10-05T18:37:21.621Z,48.58
2022-10-05T18:39:54.765Z,48.59
2022-10-05T18:42:27.625Z,48.62
2022-10-05T18:45:00.739Z,48.63
2022-10-05T18:47:33.637Z,48.65
2022-10-05T18:50:06.693Z,48.66
2022-10-05T18:52:39.761Z,48.70
2022-10-05T18:55:12.777Z,48.73
2022-10-05T18:57:45.688Z,48.74
2022-10-05T19:00:18.879Z,48.76
2022-10-05T19:02:52.042Z,48.83
2022-10-05T19:05:46.267Z,48.85
2022-10-05T19:07:57.815Z,48.89
2022-10-05T19:10:30.635Z,48.87
2022-10-05T19:13:03.731Z,48.86
2022-10-05T19:15:36.773Z,48.83
2022-10-05T19:18:09.647Z,48.81
2022-10-05T19:20:42.747Z,48.75
2022-10-05T19:23:16.002Z,48.76
2022-10-05T19:25:48.742Z,48.68
2022-10-05T19:28:22.082Z,48.67
2022-10-05T19:30:54.986Z,48.65
2022-10-05T19:33:28.074Z,48.66
2022-10-05T19:36:00.668Z,48.58
2022-10-05T19:38:34.106Z,48.60
2022-10-05T19:41:06.743Z,48.55
2022-10-05T19:43:40.070Z,48.54
2022-10-05T19:46:16.334Z,48.53
2022-10-05T19:48:45.990Z,48.55
2022-10-05T19:51:18.994Z,48.52
2022-10-05T19:53:51.924Z,48.53
2022-10-05T19:56:25.123Z,48.52
2022-10-05T19:58:58.243Z,48.55
2022-10-05T20:01:31.990Z,48.56
2022-10-05T20:04:04.786Z,48.59
2022-10-05T20:06:38.088Z,48.62
2022-10-05T20:09:11.068Z,48.63
2022-10-05T20:11:43.787Z,48.63
2022-10-05T20:14:16.941Z,48.63
2022-10-05T20:16:49.736Z,48.63
2022-10-05T20:19:22.756Z,48.40
2022-10-05T20:21:56.066Z,47.34
2022-10-05T20:24:28.946Z,47.00
2022-10-05T20:27:01.896Z,47.12
2022-10-05T20:29:35.092Z,47.19
2022-10-05T20:32:07.806Z,47.10
2022-10-05T20:34:41.176Z,47.42
2022-10-05T20:37:14.071Z,47.56
2022-10-05T20:39:47.188Z,47.61
2022-10-05T20:42:34.131Z,47.74
2022-10-05T20:45:06.977Z,47.80
2022-10-05T20:47:39.925Z,47.92
2022-10-05T20:50:12.789Z,47.95
2022-10-05T20:52:45.804Z,48.04
2022-10-05T20:55:18.825Z,48.20
2022-10-05T20:57:51.816Z,48.18
2022-10-05T21:00:24.791Z,48.31
2022-10-05T21:02:57.946Z,48.45
2022-10-05T21:05:30.853Z,48.51
2022-10-05T21:08:04.128Z,48.51
2022-10-05T21:10:36.825Z,48.53
2022-10-05T21:13:10.091Z,48.44
2022-10-05T21:15:43.204Z,48.49
2022-10-05T21:18:16.026Z,48.45
2022-10-05T21:20:48.991Z,48.51
2022-10-05T21:23:22.171Z,48.52
2022-10-05T21:25:55.201Z,48.64
2022-10-05T21:28:31.593Z,48.75
2022-10-05T21:31:04.280Z,48.77
2022-10-05T21:33:37.177Z,48.81
2022-10-05T21:36:10.118Z,48.90
2022-10-05T21:38:43.238Z,49.01
2022-10-05T21:41:16.235Z,48.92
2022-10-05T21:43:49.158Z,49.35
2022-10-05T21:46:22.251Z,49.51
2022-10-05T21:48:55.162Z,49.60
2022-10-05T21:51:28.268Z,49.62
2022-10-05T21:54:01.165Z,49.77
2022-10-05T21:56:34.099Z,49.75
2022-10-05T21:59:07.157Z,49.80
2022-10-05T22:01:40.252Z,49.93
2022-10-05T22:04:13.230Z,49.90
2022-10-05T22:06:46.291Z,49.91
2022-10-05T22:09:19.179Z,49.94
2022-10-05T22:11:52.306Z,49.95
2022-10-05T22:14:25.235Z,49.97
2022-10-05T22:16:58.286Z,50.25
2022-10-05T22:19:31.212Z,50.16
2022-10-05T22:22:06.673Z,50.05
2022-10-05T22:24:37.229Z,50.39
2022-10-05T22:27:10.241Z,50.20
2022-10-05T22:29:43.294Z,50.43
2022-10-05T22:32:16.244Z,50.33
2022-10-05T22:34:49.322Z,50.17
2022-10-05T22:37:22.252Z,50.19
2022-10-05T22:39:55.317Z,50.12
2022-10-05T22:42:28.305Z,50.12
2022-10-05T22:45:01.282Z,50.00
2022-10-05T22:47:34.296Z,50.32
2022-10-05T22:50:07.313Z,50.01
2022-10-05T22:52:41.227Z,50.20
2022-10-05T22:55:14.317Z,50.05
2022-10-05T22:57:47.379Z,50.23
2022-10-05T23:00:24.718Z,49.95
2022-10-05T23:02:53.303Z,50.09
2022-10-05T23:05:26.272Z,49.93
2022-10-05T23:07:59.341Z,50.00
2022-10-05T23:10:32.338Z,50.04
2022-10-05T23:13:05.408Z,50.10
2022-10-05T23:15:38.369Z,50.20
2022-10-05T23:18:11.288Z,50.46
2022-10-05T23:20:44.134Z,50.27
2022-10-05T23:23:17.356Z,50.16
2022-10-05T23:25:50.344Z,50.07
2022-10-05T23:28:23.490Z,50.37
2022-10-05T23:30:56.456Z,50.34
2022-10-05T23:33:29.404Z,50.25
2022-10-05T23:36:02.387Z,50.13
2022-10-05T23:38:35.252Z,50.45
2022-10-05T23:41:08.384Z,50.10
2022-10-05T23:43:41.405Z,50.21
2022-10-05T23:46:14.477Z,50.45
2022-10-05T23:48:47.411Z,50.42
2022-10-05T23:51:20.432Z,50.48
2022-10-05T23:53:53.391Z,50.61
2022-10-05T23:56:26.347Z,50.60
2022-10-05T23:58:59.562Z,50.62
